Chenango Lake, New York
Current Conditions -  °F | °C
As of 12:24 PM on Saturday 20 Dec 2014 (Local Time) from KBGM Reporting Station
Light Snow Light Snow  
Wind Chill: 19°   Ceiling: 1800
Heat Index: 25°   Visibility: 2.5mi
Dew Point: 20°   Wind: 5mph
Humidity: 81%   Direction: 340°NNW
Pressure: 30.19"   Gusts: NA
Location:  42.5586°N, 75.5571°W
Report Text: KBGM 201724Z 34004KT 2 1/2SM -SN OVC018 M04/M07 A3019 RMK AO2 SFC VIS 3 SNB11 P0000 T10391067
Loading
Personal Weather Stations






























Interactive Weather Map New forecast layout! Learn more

10-Day Weather Forecast

Advertisements
Track Severe Weather on mobile